Time;durP1;ratioP1;P1;durP2;ratioP2;P2;SDS_P1;SDS_P2;PMS_P1;PMS_P2;Temp;Humidity;BMP_temperature;BMP_pressure;BME280_temperature;BME280_humidity;BME280_pressure;Samples;Min_cycle;Max_cycle;Signal;HPM_P1;HPM_P2
2022/09/03 00:02:49;;;;;;;3.33;1.80;;;;;;;;;;5028039;28;20203;-66
2022/09/03 00:05:33;;;;;;;4.70;2.07;;;;;;;;;;4941265;28;20229;-66
2022/09/03 00:08:11;;;;;;;2.13;1.63;;;;;;;;;;5020268;28;20745;-66
2022/09/03 00:10:47;;;;;;;3.83;2.07;;;;;;;;;;5011359;28;20547;-66
2022/09/03 00:13:26;;;;;;;4.10;2.30;;;;;;;;;;5028814;28;21052;-66
2022/09/03 00:15:53;;;;;;;2.43;1.80;;;;;;;;;;5010585;28;20183;-66
2022/09/03 00:18:20;;;;;;;5.27;2.00;;;;;;;;;;4994238;28;20820;-66
2022/09/03 00:20:58;;;;;;;2.70;1.90;;;;;;;;;;5011383;28;20180;-66
2022/09/03 00:23:26;;;;;;;2.97;1.87;;;;;;;;;;5010280;28;20196;-66
2022/09/03 00:25:54;;;;;;;4.27;1.87;;;;;;;;;;5028780;28;20190;-66
2022/09/03 00:28:33;;;;;;;2.00;1.43;;;;;;;;;;5038627;28;20196;-66
2022/09/03 00:31:18;;;;;;;3.13;1.90;;;;;;;;;;5010362;28;20223;-66
2022/09/03 00:33:45;;;;;;;2.90;1.90;;;;;;;;;;5028044;28;20191;-66
2022/09/03 00:36:14;;;;;;;2.50;1.77;;;;;;;;;;4994909;28;20712;-66
2022/09/03 00:38:41;;;;;;;2.23;1.50;;;;;;;;;;5024325;28;20188;-66
2022/09/03 00:41:09;;;;;;;3.63;2.00;;;;;;;;;;5027268;28;20697;-66
2022/09/03 00:43:58;;;;;;;2.63;1.80;;;;;;;;;;5013052;28;20170;-66
2022/09/03 00:46:37;;;;;;;2.80;1.80;;;;;;;;;;5027166;28;20558;-66
2022/09/03 00:49:30;;;;;;;5.10;1.80;;;;;;;;;;5028187;28;20182;-66
2022/09/03 00:52:03;;;;;;;4.30;2.00;;;;;;;;;;5027074;28;20589;-66
2022/09/03 00:54:39;;;;;;;2.33;1.60;;;;;;;;;;5026778;28;20622;-66
2022/09/03 00:57:10;;;;;;;2.47;1.83;;;;;;;;;;5028102;28;20299;-66
2022/09/03 00:59:49;;;;;;;7.37;1.77;;;;;;;;;;5027911;28;20187;-66
2022/09/03 01:02:22;;;;;;;4.50;2.07;;;;;;;;;;5011343;28;20248;-66
2022/09/03 01:04:52;;;;;;;3.63;2.13;;;;;;;;;;5022828;28;20234;-65
2022/09/03 01:07:25;;;;;;;5.30;2.13;;;;;;;;;;5029018;28;20195;-66
2022/09/03 01:09:55;;;;;;;2.83;1.90;;;;;;;;;;5031868;28;20187;-66
2022/09/03 01:12:29;;;;;;;4.83;2.13;;;;;;;;;;5033803;28;20776;-66
2022/09/03 01:15:14;;;;;;;5.33;2.30;;;;;;;;;;5039363;28;20195;-66
2022/09/03 01:18:00;;;;;;;3.37;2.50;;;;;;;;;;5050262;28;20615;-66
2022/09/03 01:20:30;;;;;;;4.63;2.23;;;;;;;;;;5053652;28;20281;-66
2022/09/03 01:23:15;;;;;;;5.77;2.30;;;;;;;;;;5051662;28;20249;-66
2022/09/03 01:25:43;;;;;;;3.13;1.80;;;;;;;;;;5038199;28;20197;-66
2022/09/03 01:28:22;;;;;;;2.70;1.23;;;;;;;;;;5054014;28;20836;-66
2022/09/03 01:31:00;;;;;;;1.60;1.20;;;;;;;;;;5042031;28;20202;-65
2022/09/03 01:33:33;;;;;;;1.87;1.00;;;;;;;;;;5050523;28;20274;-66
2022/09/03 01:36:19;;;;;;;1.77;1.00;;;;;;;;;;5032740;28;20214;-66
2022/09/03 01:38:55;;;;;;;1.83;0.67;;;;;;;;;;5050139;28;20203;-66
2022/09/03 01:44:31;;;;;;;0.77;0.63;;;;;;;;;;5021825;28;20285;-66
2022/09/03 01:47:05;;;;;;;1.00;0.60;;;;;;;;;;5031242;28;20646;-66
2022/09/03 01:49:48;;;;;;;3.17;1.20;;;;;;;;;;5031118;28;20199;-68
2022/09/03 01:52:18;;;;;;;2.10;0.70;;;;;;;;;;5033507;28;20581;-65
2022/09/03 01:54:49;;;;;;;0.87;0.60;;;;;;;;;;5034575;28;20193;-66
2022/09/03 01:57:34;;;;;;;1.53;0.70;;;;;;;;;;5051523;28;20195;-66
2022/09/03 02:00:07;;;;;;;1.10;0.53;;;;;;;;;;5043149;28;20313;-66
2022/09/03 02:02:39;;;;;;;1.33;0.70;;;;;;;;;;5027824;28;20195;-66
2022/09/03 02:05:10;;;;;;;1.70;0.70;;;;;;;;;;5046973;28;20228;-66
2022/09/03 02:07:41;;;;;;;1.87;0.70;;;;;;;;;;5049609;28;20221;-67
2022/09/03 02:10:32;;;;;;;1.03;0.60;;;;;;;;;;5049190;28;20556;-66
2022/09/03 02:13:00;;;;;;;1.33;0.70;;;;;;;;;;5036410;28;20693;-66
2022/09/03 02:15:29;;;;;;;1.20;0.70;;;;;;;;;;5047420;28;20512;-66
2022/09/03 02:17:58;;;;;;;1.30;0.70;;;;;;;;;;5045162;28;20284;-66
2022/09/03 02:20:25;;;;;;;2.40;0.73;;;;;;;;;;5030976;28;20587;-66
2022/09/03 02:22:53;;;;;;;2.40;0.80;;;;;;;;;;5031894;28;20252;-66
2022/09/03 02:25:20;;;;;;;3.53;0.90;;;;;;;;;;5048819;28;20179;-66
2022/09/03 02:27:47;;;;;;;1.10;0.60;;;;;;;;;;5031554;28;20197;-66
2022/09/03 02:30:14;;;;;;;1.57;0.87;;;;;;;;;;5031845;28;20281;-66
2022/09/03 02:32:41;;;;;;;1.57;0.63;;;;;;;;;;5048822;28;20206;-67
2022/09/03 02:35:08;;;;;;;1.67;0.73;;;;;;;;;;5046880;28;20189;-66
2022/09/03 02:37:34;;;;;;;2.07;0.80;;;;;;;;;;5048613;28;20186;-66
2022/09/03 02:40:04;;;;;;;0.80;0.60;;;;;;;;;;5048121;28;20188;-66
2022/09/03 02:42:31;;;;;;;1.10;0.73;;;;;;;;;;5047624;28;20198;-66
2022/09/03 02:45:17;;;;;;;2.23;0.80;;;;;;;;;;5049152;28;20188;-66
2022/09/03 02:47:44;;;;;;;0.93;0.70;;;;;;;;;;5046385;28;20252;-66
2022/09/03 02:50:11;;;;;;;2.07;0.60;;;;;;;;;;5029834;28;20193;-66
2022/09/03 02:52:38;;;;;;;1.90;0.60;;;;;;;;;;5048136;28;20215;-67
2022/09/03 02:55:05;;;;;;;0.73;0.50;;;;;;;;;;5049310;28;20708;-66
2022/09/03 02:57:32;;;;;;;0.83;0.50;;;;;;;;;;5048930;28;20311;-66
2022/09/03 02:59:59;;;;;;;2.33;0.80;;;;;;;;;;5047902;28;20187;-66
2022/09/03 03:02:26;;;;;;;0.93;0.57;;;;;;;;;;5048881;28;20221;-66
2022/09/03 03:04:53;;;;;;;1.13;0.70;;;;;;;;;;5038206;28;20223;-66
2022/09/03 03:07:20;;;;;;;3.03;0.80;;;;;;;;;;5005588;28;20195;-66
2022/09/03 03:09:47;;;;;;;2.87;0.77;;;;;;;;;;5028436;28;20421;-66
2022/09/03 03:12:16;;;;;;;1.50;0.60;;;;;;;;;;5028819;28;20221;-66
2022/09/03 03:14:43;;;;;;;1.60;0.80;;;;;;;;;;5032180;28;21002;-66
2022/09/03 03:17:10;;;;;;;1.27;0.60;;;;;;;;;;5028524;28;20203;-66
2022/09/03 03:19:36;;;;;;;1.47;0.60;;;;;;;;;;5027774;28;20193;-68
2022/09/03 03:22:03;;;;;;;0.73;0.57;;;;;;;;;;5031415;28;20202;-66
2022/09/03 03:24:30;;;;;;;0.97;0.60;;;;;;;;;;5028460;28;20192;-66
2022/09/03 03:26:57;;;;;;;0.53;0.53;;;;;;;;;;5027968;28;20231;-66
2022/09/03 03:29:25;;;;;;;0.90;0.50;;;;;;;;;;5027845;28;20614;-66
2022/09/03 03:31:52;;;;;;;0.73;0.70;;;;;;;;;;5027665;28;20229;-67
2022/09/03 03:34:19;;;;;;;2.00;0.70;;;;;;;;;;5027385;28;20224;-66
2022/09/03 03:36:46;;;;;;;1.00;0.70;;;;;;;;;;5028425;28;20191;-66
2022/09/03 03:39:14;;;;;;;2.43;0.70;;;;;;;;;;5027510;28;20227;-66
2022/09/03 03:41:40;;;;;;;1.67;0.60;;;;;;;;;;5027454;28;20191;-66
2022/09/03 03:44:07;;;;;;;1.80;0.60;;;;;;;;;;5015587;28;20195;-66
2022/09/03 03:46:35;;;;;;;0.90;0.73;;;;;;;;;;5027942;28;20206;-66
2022/09/03 03:49:02;;;;;;;1.23;0.70;;;;;;;;;;5021009;28;20196;-66
2022/09/03 03:51:29;;;;;;;1.20;0.60;;;;;;;;;;5028556;28;20215;-66
2022/09/03 03:53:56;;;;;;;1.63;0.80;;;;;;;;;;5027927;28;20602;-66
2022/09/03 03:56:28;;;;;;;2.20;0.90;;;;;;;;;;5022288;28;20210;-66
2022/09/03 03:58:56;;;;;;;1.00;0.80;;;;;;;;;;5009098;28;20225;-67
2022/09/03 04:01:23;;;;;;;2.13;0.70;;;;;;;;;;5027838;28;20188;-67
2022/09/03 04:03:50;;;;;;;1.30;0.70;;;;;;;;;;5014869;28;20196;-66
2022/09/03 04:06:20;;;;;;;2.53;1.23;;;;;;;;;;5046602;28;20716;-66
2022/09/03 04:08:47;;;;;;;2.00;0.70;;;;;;;;;;5047036;28;20187;-66
2022/09/03 04:11:16;;;;;;;1.30;0.60;;;;;;;;;;5046798;28;20236;-66
2022/09/03 04:13:43;;;;;;;1.90;0.50;;;;;;;;;;5052073;28;20186;-66
2022/09/03 04:16:19;;;;;;;0.97;0.57;;;;;;;;;;5043265;28;20202;-66
2022/09/03 04:18:48;;;;;;;0.80;0.50;;;;;;;;;;5042481;28;20232;-66
2022/09/03 04:21:15;;;;;;;1.30;0.60;;;;;;;;;;5030411;28;20202;-66
2022/09/03 04:23:43;;;;;;;2.07;1.00;;;;;;;;;;5046550;28;20191;-66
2022/09/03 04:26:12;;;;;;;1.60;0.50;;;;;;;;;;5047728;28;20679;-66
2022/09/03 04:28:40;;;;;;;1.13;0.70;;;;;;;;;;5047831;28;20229;-66
2022/09/03 04:31:08;;;;;;;1.13;0.53;;;;;;;;;;5043476;28;20621;-66
2022/09/03 04:33:36;;;;;;;2.10;0.70;;;;;;;;;;5047253;28;20768;-66
2022/09/03 04:36:13;;;;;;;1.53;0.60;;;;;;;;;;5047707;28;20666;-66
2022/09/03 04:38:40;;;;;;;1.17;0.60;;;;;;;;;;5029842;28;20806;-66
2022/09/03 04:41:08;;;;;;;2.23;0.83;;;;;;;;;;5047594;28;20194;-66
2022/09/03 04:43:35;;;;;;;1.97;0.77;;;;;;;;;;5046903;28;20252;-66
2022/09/03 04:46:02;;;;;;;1.70;0.70;;;;;;;;;;5047753;28;20183;-66
2022/09/03 04:48:29;;;;;;;1.27;0.70;;;;;;;;;;5043987;28;20183;-66
2022/09/03 04:51:05;;;;;;;3.47;0.97;;;;;;;;;;5047454;28;20642;-66
2022/09/03 04:53:36;;;;;;;2.07;0.80;;;;;;;;;;5047520;28;20218;-66
2022/09/03 04:56:04;;;;;;;1.17;0.80;;;;;;;;;;5037142;28;20845;-66
2022/09/03 04:58:30;;;;;;;2.30;0.87;;;;;;;;;;5044266;28;20674;-66
2022/09/03 05:00:57;;;;;;;4.67;1.00;;;;;;;;;;5047085;28;20186;-66
2022/09/03 05:03:24;;;;;;;2.20;1.10;;;;;;;;;;5047179;28;20320;-66
2022/09/03 05:05:52;;;;;;;1.07;0.90;;;;;;;;;;5046897;28;20309;-66
2022/09/03 05:08:18;;;;;;;5.33;1.20;;;;;;;;;;5047472;28;20554;-66
2022/09/03 05:10:46;;;;;;;7.07;1.10;;;;;;;;;;5047441;28;20193;-66
2022/09/03 05:13:13;;;;;;;3.13;1.00;;;;;;;;;;5046745;28;20219;-66
2022/09/03 05:15:42;;;;;;;2.10;0.80;;;;;;;;;;5047265;28;20195;-66
2022/09/03 05:18:09;;;;;;;1.63;0.97;;;;;;;;;;5040974;28;20542;-66
2022/09/03 05:20:36;;;;;;;1.47;1.10;;;;;;;;;;5045366;28;20191;-66
2022/09/03 05:23:03;;;;;;;2.40;1.20;;;;;;;;;;5048572;28;20186;-67
2022/09/03 05:25:31;;;;;;;3.03;1.20;;;;;;;;;;5057698;28;20241;-66
2022/09/03 05:27:58;;;;;;;3.33;1.20;;;;;;;;;;5045631;28;20257;-67
2022/09/03 05:30:25;;;;;;;2.37;1.20;;;;;;;;;;5028291;28;20230;-66
2022/09/03 05:32:52;;;;;;;2.87;1.40;;;;;;;;;;5041791;28;20795;-67
2022/09/03 05:35:18;;;;;;;3.87;1.20;;;;;;;;;;5043787;28;20190;-67
2022/09/03 05:37:53;;;;;;;6.43;1.50;;;;;;;;;;5047722;28;20186;-64
2022/09/03 05:40:20;;;;;;;4.47;1.43;;;;;;;;;;5047161;28;20193;-65
2022/09/03 05:42:47;;;;;;;3.73;1.30;;;;;;;;;;5046184;28;20187;-67
2022/09/03 05:45:13;;;;;;;3.73;0.90;;;;;;;;;;5047219;28;20766;-66
2022/09/03 05:47:40;;;;;;;2.13;0.83;;;;;;;;;;5047225;28;20187;-65
2022/09/03 05:50:09;;;;;;;1.60;0.93;;;;;;;;;;5046353;28;20668;-65
2022/09/03 05:52:36;;;;;;;2.33;0.90;;;;;;;;;;5046538;28;20211;-67
2022/09/03 05:55:03;;;;;;;1.43;1.20;;;;;;;;;;5047248;28;20206;-67
2022/09/03 05:57:30;;;;;;;2.27;0.80;;;;;;;;;;5049987;28;20765;-65
2022/09/03 05:59:57;;;;;;;1.40;0.60;;;;;;;;;;5051351;28;20539;-66
2022/09/03 06:02:23;;;;;;;1.80;0.70;;;;;;;;;;5052122;28;20202;-66
2022/09/03 06:04:50;;;;;;;0.87;0.50;;;;;;;;;;5051575;28;20222;-65
2022/09/03 06:07:17;;;;;;;1.00;0.60;;;;;;;;;;5050189;28;20240;-65
2022/09/03 06:09:44;;;;;;;2.50;0.90;;;;;;;;;;5050433;28;20284;-66
2022/09/03 06:12:11;;;;;;;1.33;0.57;;;;;;;;;;5051294;28;20206;-65
2022/09/03 06:14:37;;;;;;;1.43;0.60;;;;;;;;;;5049907;28;20197;-67
2022/09/03 06:17:04;;;;;;;0.40;0.40;;;;;;;;;;5049680;28;20281;-66
2022/09/03 06:19:31;;;;;;;1.83;0.60;;;;;;;;;;5050011;28;20194;-65
2022/09/03 06:21:58;;;;;;;0.80;0.50;;;;;;;;;;5047384;28;20197;-65
2022/09/03 06:24:26;;;;;;;1.57;0.43;;;;;;;;;;5050028;28;20554;-64
2022/09/03 06:26:55;;;;;;;1.20;0.50;;;;;;;;;;5050792;28;20946;-65
2022/09/03 06:29:21;;;;;;;0.87;0.50;;;;;;;;;;5050386;28;20285;-68
2022/09/03 06:31:49;;;;;;;1.83;0.60;;;;;;;;;;5050413;28;20187;-68
2022/09/03 06:34:17;;;;;;;1.17;0.60;;;;;;;;;;5048822;28;20195;-66
2022/09/03 06:36:45;;;;;;;0.60;0.50;;;;;;;;;;5046823;28;20241;-66
2022/09/03 06:39:11;;;;;;;0.73;0.50;;;;;;;;;;5050742;28;20194;-65
2022/09/03 06:41:38;;;;;;;0.40;0.40;;;;;;;;;;5050905;28;20244;-67
2022/09/03 06:44:10;;;;;;;1.47;0.60;;;;;;;;;;5032765;28;20678;-66
2022/09/03 06:46:37;;;;;;;0.57;0.47;;;;;;;;;;5032890;28;20187;-67
2022/09/03 06:49:04;;;;;;;1.13;0.40;;;;;;;;;;5049654;28;20187;-67
2022/09/03 06:51:32;;;;;;;1.30;0.80;;;;;;;;;;5050556;28;20193;-66
2022/09/03 06:54:00;;;;;;;1.57;0.53;;;;;;;;;;5031505;28;20221;-65
2022/09/03 06:56:27;;;;;;;0.97;0.40;;;;;;;;;;5050455;28;20186;-65
2022/09/03 06:58:54;;;;;;;0.80;0.50;;;;;;;;;;5049224;28;20203;-64
2022/09/03 07:01:22;;;;;;;3.23;0.70;;;;;;;;;;5049618;28;20214;-64
2022/09/03 07:03:51;;;;;;;1.83;0.60;;;;;;;;;;5049003;28;20198;-65
2022/09/03 07:06:18;;;;;;;3.03;0.80;;;;;;;;;;5014881;28;20604;-67
2022/09/03 07:08:45;;;;;;;1.07;0.50;;;;;;;;;;5048307;28;20688;-66
2022/09/03 07:11:13;;;;;;;1.60;0.60;;;;;;;;;;5049504;28;20295;-67
2022/09/03 07:13:43;;;;;;;1.83;0.57;;;;;;;;;;5031939;28;20225;-67
2022/09/03 07:16:14;;;;;;;1.10;0.50;;;;;;;;;;5050011;28;20681;-67
2022/09/03 07:18:44;;;;;;;1.40;0.67;;;;;;;;;;5049253;28;20199;-67
2022/09/03 07:21:11;;;;;;;1.47;0.60;;;;;;;;;;5049992;28;20183;-67
2022/09/03 07:23:38;;;;;;;0.60;0.60;;;;;;;;;;5049835;28;20288;-67
2022/09/03 07:26:11;;;;;;;2.27;0.80;;;;;;;;;;5032589;28;20260;-66
2022/09/03 07:28:38;;;;;;;1.47;0.60;;;;;;;;;;5047742;28;20195;-67
2022/09/03 07:31:06;;;;;;;0.83;0.50;;;;;;;;;;5049339;28;20193;-67
2022/09/03 07:33:33;;;;;;;1.90;0.60;;;;;;;;;;5042277;28;20644;-68
2022/09/03 07:36:06;;;;;;;1.40;0.60;;;;;;;;;;5049366;28;20658;-68
2022/09/03 07:38:33;;;;;;;1.03;0.50;;;;;;;;;;5047335;28;20718;-67
2022/09/03 07:41:00;;;;;;;0.90;0.63;;;;;;;;;;5047159;28;20294;-68
2022/09/03 07:43:28;;;;;;;0.77;0.50;;;;;;;;;;5048667;28;20221;-67
2022/09/03 07:45:57;;;;;;;0.90;0.43;;;;;;;;;;5045026;28;20187;-68
2022/09/03 07:48:24;;;;;;;1.07;0.60;;;;;;;;;;5043976;28;20193;-67
2022/09/03 07:50:52;;;;;;;1.97;0.87;;;;;;;;;;5031324;28;20179;-67
2022/09/03 07:53:19;;;;;;;2.73;0.70;;;;;;;;;;5048871;28;20215;-68
2022/09/03 07:55:48;;;;;;;0.97;0.70;;;;;;;;;;5048552;28;20281;-68
2022/09/03 07:58:16;;;;;;;2.67;0.60;;;;;;;;;;5049193;28;20643;-67
2022/09/03 08:00:42;;;;;;;1.43;0.80;;;;;;;;;;5047408;28;20200;-65
2022/09/03 08:03:11;;;;;;;0.97;0.63;;;;;;;;;;5049935;28;20282;-66
2022/09/03 08:05:38;;;;;;;1.53;0.60;;;;;;;;;;5029890;28;20218;-65
2022/09/03 08:08:05;;;;;;;1.57;0.50;;;;;;;;;;5044305;28;20525;-65
2022/09/03 08:10:37;;;;;;;0.93;0.60;;;;;;;;;;5044634;28;20191;-64
2022/09/03 08:13:04;;;;;;;1.13;0.50;;;;;;;;;;5048236;28;20203;-66
2022/09/03 08:15:32;;;;;;;0.40;0.40;;;;;;;;;;5047712;28;20191;-68
2022/09/03 08:18:00;;;;;;;1.83;0.67;;;;;;;;;;5042749;28;20195;-65
2022/09/03 08:20:31;;;;;;;1.23;0.60;;;;;;;;;;5048190;28;20199;-65
2022/09/03 08:23:01;;;;;;;0.67;0.50;;;;;;;;;;5048737;28;20279;-65
2022/09/03 08:25:28;;;;;;;0.50;0.50;;;;;;;;;;5049269;28;20249;-65
2022/09/03 08:27:59;;;;;;;1.77;0.70;;;;;;;;;;5048603;28;20737;-66
2022/09/03 08:30:26;;;;;;;0.73;0.60;;;;;;;;;;5044253;28;20191;-66
2022/09/03 08:32:54;;;;;;;2.73;0.70;;;;;;;;;;5048886;28;20207;-65
2022/09/03 08:35:21;;;;;;;1.90;0.60;;;;;;;;;;5045297;28;20213;-66
2022/09/03 08:37:50;;;;;;;0.70;0.60;;;;;;;;;;5049087;28;20193;-65
2022/09/03 08:40:23;;;;;;;0.77;0.60;;;;;;;;;;5048950;28;20193;-65
2022/09/03 08:43:05;;;;;;;1.40;1.00;;;;;;;;;;5030250;28;20596;-64
2022/09/03 08:45:33;;;;;;;0.83;0.50;;;;;;;;;;5048320;28;20658;-66
2022/09/03 08:48:03;;;;;;;0.87;0.70;;;;;;;;;;5031371;28;20291;-66
2022/09/03 08:50:31;;;;;;;8.93;1.80;;;;;;;;;;5040343;28;20192;-65
2022/09/03 08:53:08;;;;;;;0.50;0.50;;;;;;;;;;5047269;28;20206;-65
2022/09/03 08:55:41;;;;;;;1.17;0.47;;;;;;;;;;5048818;28;20282;-65
2022/09/03 08:58:26;;;;;;;0.90;0.70;;;;;;;;;;5033068;28;20179;-65
2022/09/03 09:01:00;;;;;;;2.50;0.50;;;;;;;;;;5042092;28;20242;-66
2022/09/03 09:03:59;;;;;;;1.70;0.53;;;;;;;;;;5031582;28;20195;-65
2022/09/03 09:06:35;;;;;;;1.33;0.60;;;;;;;;;;5047614;28;20183;-65
2022/09/03 09:09:24;;;;;;;1.43;0.47;;;;;;;;;;5047779;28;20537;-66
2022/09/03 09:11:54;;;;;;;1.10;0.40;;;;;;;;;;5019927;28;20596;-65
2022/09/03 09:14:24;;;;;;;1.43;0.40;;;;;;;;;;5046984;28;20301;-66
2022/09/03 09:16:57;;;;;;;0.77;0.33;;;;;;;;;;5036780;28;20721;-66
2022/09/03 09:19:37;;;;;;;1.40;0.50;;;;;;;;;;5034035;28;20241;-66
2022/09/03 09:22:08;;;;;;;0.93;0.50;;;;;;;;;;5018299;28;20187;-66
2022/09/03 09:24:39;;;;;;;0.60;0.30;;;;;;;;;;5047253;28;20934;-66
2022/09/03 09:27:07;;;;;;;1.13;0.40;;;;;;;;;;5026660;28;20274;-66
2022/09/03 09:29:39;;;;;;;1.10;0.40;;;;;;;;;;5031631;28;20202;-66
2022/09/03 09:32:08;;;;;;;3.67;0.80;;;;;;;;;;5034637;28;20202;-68
2022/09/03 09:34:38;;;;;;;0.40;0.40;;;;;;;;;;5045472;28;20238;-65
2022/09/03 09:37:06;;;;;;;1.23;0.43;;;;;;;;;;5051534;28;20718;-66
2022/09/03 09:39:33;;;;;;;2.10;0.60;;;;;;;;;;5036182;28;20190;-66
2022/09/03 09:42:07;;;;;;;0.50;0.30;;;;;;;;;;5043335;28;20253;-65
2022/09/03 09:44:37;;;;;;;0.47;0.40;;;;;;;;;;5047285;28;20191;-65
2022/09/03 09:47:11;;;;;;;0.37;0.30;;;;;;;;;;5044873;28;20207;-65
2022/09/03 09:49:47;;;;;;;0.53;0.40;;;;;;;;;;5032446;28;20654;-64
2022/09/03 09:52:15;;;;;;;0.50;0.40;;;;;;;;;;5041297;28;20205;-64
2022/09/03 09:54:42;;;;;;;0.57;0.40;;;;;;;;;;5042263;28;20282;-67
2022/09/03 09:57:16;;;;;;;0.57;0.50;;;;;;;;;;5051393;28;20776;-66
2022/09/03 09:59:44;;;;;;;1.57;0.40;;;;;;;;;;5037878;28;20195;-66
2022/09/03 10:02:25;;;;;;;0.77;0.30;;;;;;;;;;5051962;28;20675;-66
2022/09/03 10:05:13;;;;;;;0.30;0.30;;;;;;;;;;5040692;28;20221;-65
2022/09/03 10:07:40;;;;;;;0.67;0.40;;;;;;;;;;5051413;28;20197;-66
2022/09/03 10:10:17;;;;;;;1.80;0.90;;;;;;;;;;5033952;28;20281;-65
2022/09/03 10:12:44;;;;;;;0.63;0.40;;;;;;;;;;5050342;28;20367;-65
2022/09/03 10:15:23;;;;;;;4.63;2.90;;;;;;;;;;5025579;28;20221;-67
2022/09/03 10:17:59;;;;;;;0.70;0.50;;;;;;;;;;5034435;28;20278;-67
2022/09/03 10:20:46;;;;;;;0.50;0.30;;;;;;;;;;5049090;28;20190;-65
2022/09/03 10:23:23;;;;;;;0.90;0.77;;;;;;;;;;5030880;28;20226;-66
2022/09/03 10:26:06;;;;;;;0.63;0.40;;;;;;;;;;5048999;28;20743;-66
2022/09/03 10:28:40;;;;;;;0.43;0.30;;;;;;;;;;5050935;28;20218;-67
2022/09/03 10:31:27;;;;;;;1.70;0.40;;;;;;;;;;5018652;28;20721;-67
2022/09/03 10:34:01;;;;;;;0.40;0.40;;;;;;;;;;5049238;28;20209;-66
2022/09/03 10:36:48;;;;;;;0.40;0.40;;;;;;;;;;5050183;28;20201;-66
2022/09/03 10:39:27;;;;;;;0.73;0.40;;;;;;;;;;5050606;28;20228;-68
2022/09/03 10:42:05;;;;;;;1.27;0.57;;;;;;;;;;5033314;28;20198;-67
2022/09/03 10:44:59;;;;;;;1.33;0.43;;;;;;;;;;5041553;28;20194;-61
2022/09/03 10:47:45;;;;;;;1.40;0.40;;;;;;;;;;5032921;28;20427;-66
2022/09/03 10:50:16;;;;;;;0.43;0.43;;;;;;;;;;5040572;28;20569;-66
2022/09/03 10:52:48;;;;;;;0.80;0.40;;;;;;;;;;5034862;28;20698;-67
2022/09/03 10:55:35;;;;;;;1.43;0.30;;;;;;;;;;5040960;28;20222;-66
2022/09/03 10:58:11;;;;;;;0.40;0.27;;;;;;;;;;5031877;28;20214;-66
2022/09/03 11:00:38;;;;;;;1.03;0.60;;;;;;;;;;5032382;28;20276;-67
2022/09/03 11:03:11;;;;;;;0.93;0.67;;;;;;;;;;5031410;28;20237;-65
2022/09/03 11:05:48;;;;;;;2.13;0.60;;;;;;;;;;5047208;28;20262;-65
2022/09/03 11:08:27;;;;;;;4.30;3.37;;;;;;;;;;5013305;28;20281;-71
2022/09/03 11:10:55;;;;;;;0.70;0.67;;;;;;;;;;5046705;28;20225;-68
2022/09/03 11:13:25;;;;;;;0.67;0.40;;;;;;;;;;5029441;28;20282;-65
2022/09/03 11:15:52;;;;;;;1.30;0.40;;;;;;;;;;5046576;28;20199;-73
2022/09/03 11:18:27;;;;;;;1.07;0.60;;;;;;;;;;5029106;28;20193;-65
2022/09/03 11:20:56;;;;;;;2.30;0.70;;;;;;;;;;5049447;28;20196;-74
2022/09/03 11:23:23;;;;;;;1.93;0.40;;;;;;;;;;5031078;28;20214;-71
2022/09/03 11:25:54;;;;;;;1.27;0.60;;;;;;;;;;5030610;28;20550;-72
2022/09/03 11:28:24;;;;;;;2.13;0.37;;;;;;;;;;5031903;28;20194;-74
2022/09/03 11:30:54;;;;;;;1.20;0.40;;;;;;;;;;5044063;28;20190;-73
2022/09/03 11:33:22;;;;;;;1.60;0.50;;;;;;;;;;5032280;28;20230;-73
2022/09/03 11:36:00;;;;;;;2.97;0.60;;;;;;;;;;5031370;28;20274;-73
2022/09/03 11:38:33;;;;;;;0.87;0.60;;;;;;;;;;5013858;28;20202;-70
2022/09/03 11:41:09;;;;;;;1.83;0.43;;;;;;;;;;5030732;28;20915;-74
2022/09/03 11:43:36;;;;;;;0.50;0.30;;;;;;;;;;5039229;28;20195;-74
2022/09/03 11:46:22;;;;;;;1.23;0.50;;;;;;;;;;5031553;28;20189;-75
2022/09/03 11:48:50;;;;;;;0.30;0.30;;;;;;;;;;5038714;28;20195;-73
2022/09/03 11:51:17;;;;;;;0.40;0.30;;;;;;;;;;5042826;28;20187;-72
2022/09/03 11:54:04;;;;;;;3.47;1.70;;;;;;;;;;5011799;28;20281;-76
2022/09/03 11:56:31;;;;;;;2.33;0.40;;;;;;;;;;5036869;28;20264;-73
2022/09/03 11:59:13;;;;;;;;;;;;;;;;;;;;;
2022/09/03 12:01:51;;;;;;;2.67;0.50;;;;;;;;;;5011294;28;20999;-74
2022/09/03 12:04:20;;;;;;;1.80;0.90;;;;;;;;;;5045354;28;20226;-75
2022/09/03 12:06:57;;;;;;;0.70;0.60;;;;;;;;;;5014761;28;20218;-76
2022/09/03 12:09:29;;;;;;;0.40;0.30;;;;;;;;;;5029378;28;20198;-77
2022/09/03 12:12:00;;;;;;;0.90;0.40;;;;;;;;;;5031466;28;20194;-70
2022/09/03 12:14:36;;;;;;;2.40;1.00;;;;;;;;;;5049143;28;20237;-75
2022/09/03 12:17:03;;;;;;;2.97;0.80;;;;;;;;;;5041317;28;20249;-70
2022/09/03 12:19:46;;;;;;;0.40;0.30;;;;;;;;;;5034542;28;20249;-81
2022/09/03 12:22:14;;;;;;;2.17;1.20;;;;;;;;;;5038087;28;20594;-73
2022/09/03 12:24:43;;;;;;;3.30;0.73;;;;;;;;;;5014908;28;20546;-76
2022/09/03 12:27:11;;;;;;;0.90;0.50;;;;;;;;;;5041038;28;20550;-72
2022/09/03 12:29:39;;;;;;;0.67;0.53;;;;;;;;;;5028055;28;20283;-73
2022/09/03 12:32:07;;;;;;;2.30;0.60;;;;;;;;;;5021908;28;20194;-73
2022/09/03 12:34:34;;;;;;;0.53;0.50;;;;;;;;;;5028015;28;20215;-75
2022/09/03 12:37:01;;;;;;;3.43;0.93;;;;;;;;;;5038598;28;20245;-74
2022/09/03 12:39:30;;;;;;;1.20;0.63;;;;;;;;;;5043714;28;20658;-74
2022/09/03 12:42:20;;;;;;;0.60;0.40;;;;;;;;;;5050825;28;20190;-76
2022/09/03 12:44:47;;;;;;;1.57;0.40;;;;;;;;;;5031144;28;20205;-74
2022/09/03 12:47:16;;;;;;;1.37;0.70;;;;;;;;;;5038545;28;20211;-75
2022/09/03 12:50:05;;;;;;;1.37;0.50;;;;;;;;;;5024131;28;20237;-75
2022/09/03 12:52:32;;;;;;;0.83;0.40;;;;;;;;;;5036761;28;20187;-75
2022/09/03 12:55:07;;;;;;;0.70;0.30;;;;;;;;;;5019719;28;20258;-74
2022/09/03 12:57:42;;;;;;;1.43;0.50;;;;;;;;;;5046097;28;20386;-75
2022/09/03 13:00:09;;;;;;;1.20;0.53;;;;;;;;;;5045923;28;20201;-74
2022/09/03 13:02:38;;;;;;;0.43;0.30;;;;;;;;;;5026481;28;20187;-74
2022/09/03 13:05:07;;;;;;;0.60;0.30;;;;;;;;;;5036467;28;20231;-75
2022/09/03 13:07:36;;;;;;;1.70;0.50;;;;;;;;;;4998325;28;20215;-74
2022/09/03 13:10:06;;;;;;;0.80;0.37;;;;;;;;;;5022546;28;20198;-76
2022/09/03 13:12:34;;;;;;;1.37;0.30;;;;;;;;;;5028053;28;20183;-78
2022/09/03 13:15:05;;;;;;;0.73;0.40;;;;;;;;;;5013612;28;20311;-78
2022/09/03 13:17:37;;;;;;;0.40;0.30;;;;;;;;;;5017214;28;20219;-76
2022/09/03 13:20:11;;;;;;;7.90;0.90;;;;;;;;;;5027636;28;20282;-75
2022/09/03 13:22:49;;;;;;;1.27;0.33;;;;;;;;;;5000992;28;20528;-76
2022/09/03 13:25:23;;;;;;;1.47;0.50;;;;;;;;;;5029114;28;20191;-75
2022/09/03 13:27:50;;;;;;;1.97;0.50;;;;;;;;;;5029796;28;20187;-66
2022/09/03 13:30:21;;;;;;;0.60;0.60;;;;;;;;;;5031464;28;20253;-66
2022/09/03 13:32:49;;;;;;;2.10;0.50;;;;;;;;;;5022511;28;20196;-66
2022/09/03 13:35:36;;;;;;;4.10;0.50;;;;;;;;;;5028809;28;20585;-65
2022/09/03 13:38:08;;;;;;;1.53;0.40;;;;;;;;;;5012996;28;20245;-65
2022/09/03 13:40:37;;;;;;;1.23;0.60;;;;;;;;;;5015550;28;20700;-66
2022/09/03 13:43:12;;;;;;;3.40;0.70;;;;;;;;;;5033350;28;20195;-65
2022/09/03 13:45:42;;;;;;;2.70;0.60;;;;;;;;;;5030237;28;20264;-65
2022/09/03 13:51:02;;;;;;;1.07;0.40;;;;;;;;;;5018298;28;20202;-66
2022/09/03 13:53:56;;;;;;;0.27;0.27;;;;;;;;;;5023267;28;20238;-66
2022/09/03 13:56:26;;;;;;;0.50;0.30;;;;;;;;;;5002016;28;20207;-67
2022/09/03 13:58:59;;;;;;;0.77;0.60;;;;;;;;;;5033627;28;20583;-66
2022/09/03 14:01:32;;;;;;;1.77;1.00;;;;;;;;;;5006396;28;20191;-66
2022/09/03 14:04:01;;;;;;;0.50;0.40;;;;;;;;;;5028976;28;20300;-67
2022/09/03 14:06:41;;;;;;;0.50;0.40;;;;;;;;;;5021411;28;20184;-66
2022/09/03 14:09:11;;;;;;;1.17;0.60;;;;;;;;;;5016661;28;20191;-66
2022/09/03 14:11:57;;;;;;;0.30;0.30;;;;;;;;;;5002909;28;20559;-67
2022/09/03 14:14:53;;;;;;;3.20;0.60;;;;;;;;;;5033583;28;20301;-67
2022/09/03 14:17:38;;;;;;;0.40;0.40;;;;;;;;;;5009059;28;20230;-66
2022/09/03 14:20:06;;;;;;;0.60;0.50;;;;;;;;;;5030313;28;20863;-67
2022/09/03 14:22:44;;;;;;;0.50;0.43;;;;;;;;;;5027985;28;20280;-67
2022/09/03 14:25:15;;;;;;;0.40;0.40;;;;;;;;;;5012523;28;20720;-66
2022/09/03 14:27:42;;;;;;;0.30;0.30;;;;;;;;;;5030007;28;20218;-66
2022/09/03 14:30:15;;;;;;;0.40;0.40;;;;;;;;;;5012434;28;20195;-66
2022/09/03 14:32:48;;;;;;;0.57;0.50;;;;;;;;;;5029205;28;20271;-67
2022/09/03 14:35:15;;;;;;;0.40;0.40;;;;;;;;;;5012438;28;20698;-67
2022/09/03 14:37:51;;;;;;;0.53;0.40;;;;;;;;;;5029714;28;20299;-66
2022/09/03 14:40:38;;;;;;;3.23;0.60;;;;;;;;;;5028854;28;20182;-66
2022/09/03 14:43:23;;;;;;;1.47;0.70;;;;;;;;;;5030036;28;20652;-67
2022/09/03 14:46:06;;;;;;;0.93;0.50;;;;;;;;;;5026627;28;20528;-69
2022/09/03 14:48:51;;;;;;;1.50;0.60;;;;;;;;;;5012675;28;20245;-60
2022/09/03 14:52:15;;;;;;;1.00;0.60;;;;;;;;;;5023577;28;20206;-63
2022/09/03 14:54:48;;;;;;;0.83;0.50;;;;;;;;;;5002863;28;20235;-63
2022/09/03 14:57:20;;;;;;;0.53;0.43;;;;;;;;;;5015008;28;20230;-65
2022/09/03 14:59:53;;;;;;;1.77;0.70;;;;;;;;;;5027735;28;20215;-68
2022/09/03 15:02:35;;;;;;;0.80;0.50;;;;;;;;;;5029587;28;20289;-69
2022/09/03 15:05:03;;;;;;;1.97;0.90;;;;;;;;;;5037890;28;20222;-68
2022/09/03 15:07:41;;;;;;;1.57;0.70;;;;;;;;;;5035563;28;20199;-72
2022/09/03 15:10:15;;;;;;;1.87;0.67;;;;;;;;;;5047367;28;20274;-69
2022/09/03 15:12:43;;;;;;;0.73;0.50;;;;;;;;;;5045120;28;20194;-69
2022/09/03 15:15:18;;;;;;;1.20;0.43;;;;;;;;;;5028207;28;20267;-68
2022/09/03 15:17:45;;;;;;;1.67;0.60;;;;;;;;;;5031444;28;20221;-70